Time;durP1;ratioP1;P1;durP2;ratioP2;P2;SDS_P1;SDS_P2;PMS_P1;PMS_P2;Temp;Humidity;BMP_temperature;BMP_pressure;BME280_temperature;BME280_humidity;BME280_pressure;Samples;Min_cycle;Max_cycle;Signal;HPM_P1;HPM_P2
2023/12/02 00:00:27;;;;;;;120.90;56.20;;;;;;;-4.62;89.56;99649.31;108581;282;155053;-71
2023/12/02 00:03:22;;;;;;;129.20;55.70;;;;;;;-4.64;89.55;99648.44;108728;283;38206;-69
2023/12/02 00:05:58;;;;;;;117.00;56.30;;;;;;;-4.64;89.55;99647.24;108565;282;155201;-70
2023/12/02 00:08:32;;;;;;;124.00;57.00;;;;;;;-4.66;89.68;99645.52;108732;282;38354;-69
2023/12/02 00:11:11;;;;;;;122.50;55.10;;;;;;;-4.67;89.65;99638.02;108611;282;155866;-69
2023/12/02 00:13:52;;;;;;;116.20;55.50;;;;;;;-4.65;89.72;99635.33;108728;282;39446;-71
2023/12/02 00:16:31;;;;;;;119.30;54.80;;;;;;;-4.63;89.71;99623.95;108599;282;154681;-70
2023/12/02 00:19:07;;;;;;;126.50;57.60;;;;;;;-4.64;89.63;99624.27;108717;282;38523;-71
2023/12/02 00:21:41;;;;;;;126.70;60.40;;;;;;;-4.64;89.66;99634.67;108659;282;39044;-69
2023/12/02 00:24:16;;;;;;;131.10;57.10;;;;;;;-4.66;89.67;99642.13;108586;282;154608;-71
2023/12/02 00:26:50;;;;;;;127.80;58.20;;;;;;;-4.65;89.73;99649.45;108715;282;38267;-72
2023/12/02 00:29:28;;;;;;;127.00;55.70;;;;;;;-4.67;89.59;99644.50;107943;282;922500;-69
2023/12/02 00:32:05;;;;;;;120.80;54.60;;;;;;;-4.67;89.45;99642.80;108689;282;39542;-69
2023/12/02 00:34:39;;;;;;;119.30;55.50;;;;;;;-4.65;89.54;99647.41;108593;282;155594;-72
2023/12/02 00:37:13;;;;;;;118.40;56.30;;;;;;;-4.62;89.63;99651.71;108698;282;38520;-72
2023/12/02 00:39:49;;;;;;;121.50;57.70;;;;;;;-4.60;89.70;99659.89;108768;282;38474;-71
2023/12/02 00:42:26;;;;;;;127.90;57.70;;;;;;;-4.58;89.72;99659.04;108573;282;154515;-71
2023/12/02 00:45:02;;;;;;;135.70;61.00;;;;;;;-4.58;89.81;99657.70;108731;282;38674;-71
2023/12/02 00:47:38;;;;;;;132.90;58.70;;;;;;;-4.56;89.79;99664.19;108558;282;155177;-70
2023/12/02 00:50:14;;;;;;;116.90;54.80;;;;;;;-4.55;89.71;99669.83;108583;282;38241;-67
2023/12/02 00:52:56;;;;;;;123.40;58.60;;;;;;;-4.50;89.71;99675.31;108547;282;156312;-68
2023/12/02 00:55:36;;;;;;;126.30;58.30;;;;;;;-4.48;89.65;99669.23;108646;282;39644;-69
2023/12/02 00:58:12;;;;;;;132.60;60.70;;;;;;;-4.47;89.65;99663.27;108696;282;39577;-69
2023/12/02 01:00:51;;;;;;;131.30;59.60;;;;;;;-4.48;89.58;99647.79;108633;282;38505;-70
2023/12/02 01:03:27;;;;;;;129.90;57.40;;;;;;;-4.47;89.77;99644.05;108699;282;38191;-70
2023/12/02 01:06:01;;;;;;;135.40;60.10;;;;;;;-4.46;89.70;99644.05;108666;282;156149;-73
2023/12/02 01:08:36;;;;;;;120.60;56.50;;;;;;;-4.45;89.66;99646.61;108734;282;38112;-69
2023/12/02 01:11:12;;;;;;;127.60;58.40;;;;;;;-4.43;89.65;99636.42;108497;282;154494;-69
2023/12/02 01:13:46;;;;;;;128.90;58.00;;;;;;;-4.40;89.97;99631.00;108792;282;39695;-73
2023/12/02 01:16:29;;;;;;;139.50;60.90;;;;;;;-4.35;90.19;99627.30;108592;282;155366;-71
2023/12/02 01:19:04;;;;;;;151.10;61.80;;;;;;;-4.35;90.21;99625.60;108649;282;173625;-70
2023/12/02 01:21:38;;;;;;;144.70;58.40;;;;;;;-4.36;90.10;99612.98;107979;282;921124;-69
2023/12/02 01:24:14;;;;;;;102.30;45.30;;;;;;;-4.39;90.13;99607.34;108503;282;176351;-72
2023/12/02 01:26:50;;;;;;;111.10;48.00;;;;;;;-4.38;90.16;99606.84;108688;282;38381;-73
2023/12/02 01:29:24;;;;;;;103.70;46.20;;;;;;;-4.34;90.53;99605.70;108593;282;156084;-67
2023/12/02 01:32:04;;;;;;;105.40;47.60;;;;;;;-4.31;90.38;99600.10;108747;282;39621;-67
2023/12/02 01:34:38;;;;;;;110.70;50.40;;;;;;;-4.28;90.60;99595.71;108589;282;154567;-70
2023/12/02 01:37:15;;;;;;;121.30;52.80;;;;;;;-4.27;90.53;99586.70;108780;282;38459;-72
2023/12/02 01:39:53;;;;;;;;;;;;;;;-4.23;90.98;99588.77;108731;282;38444;-70
2023/12/02 01:42:32;;;;;;;108.30;46.50;;;;;;;-4.23;90.85;99590.83;108643;282;141895;-71
2023/12/02 01:45:12;;;;;;;98.40;44.50;;;;;;;-4.21;90.65;99589.13;108730;282;38364;-69
2023/12/02 01:47:57;;;;;;;96.70;42.60;;;;;;;-4.18;90.77;99585.74;107923;282;923034;-68
2023/12/02 01:50:34;;;;;;;104.10;46.70;;;;;;;-4.17;90.64;99597.00;108740;282;38641;-71
2023/12/02 01:53:12;;;;;;;99.40;40.40;;;;;;;-4.16;90.68;99601.95;108631;282;155282;-72
2023/12/02 01:55:52;;;;;;;94.80;41.10;;;;;;;-4.18;90.77;99611.64;108785;282;38776;-70
2023/12/02 01:58:31;;;;;;;87.50;37.20;;;;;;;-4.17;90.75;99618.13;108556;282;154526;-73
2023/12/02 02:01:05;;;;;;;;;;;;;;;-4.19;90.54;99618.95;108783;282;38248;-70
2023/12/02 02:03:39;;;;;;;88.40;38.90;;;;;;;-4.19;90.83;99622.18;108732;282;38550;-73
2023/12/02 02:06:17;;;;;;;84.80;37.20;;;;;;;-4.13;90.93;99629.74;108604;282;154317;-75
2023/12/02 02:08:52;;;;;;;82.00;37.00;;;;;;;-4.07;91.15;99633.71;108730;282;39514;-71
2023/12/02 02:11:26;;;;;;;83.00;36.60;;;;;;;-4.02;91.16;99638.02;108580;282;155144;-71
2023/12/02 02:14:01;;;;;;;82.30;36.90;;;;;;;-3.97;91.22;99639.42;108726;282;38326;-71
2023/12/02 02:16:35;;;;;;;84.10;35.10;;;;;;;-3.95;90.91;99638.42;108553;282;154085;-71
2023/12/02 02:19:12;;;;;;;74.10;33.40;;;;;;;-3.97;90.54;99633.11;108777;282;38441;-71
2023/12/02 02:21:46;;;;;;;75.10;33.00;;;;;;;-3.98;90.42;99635.15;108708;282;38180;-71
2023/12/02 02:24:23;;;;;;;73.80;32.80;;;;;;;-3.99;90.22;99637.02;108646;282;154455;-70
2023/12/02 02:26:58;;;;;;;76.70;34.90;;;;;;;-4.01;90.15;99631.71;108730;282;39115;-71
2023/12/02 02:29:33;;;;;;;80.70;36.00;;;;;;;-3.98;90.45;99623.40;108615;282;153965;-70
2023/12/02 02:32:10;;;;;;;83.00;36.00;;;;;;;-4.00;90.15;99624.40;108771;282;38738;-72
2023/12/02 02:34:44;;;;;;;81.50;35.40;;;;;;;-4.02;90.32;99630.18;108470;280;176313;-73
2023/12/02 02:37:19;;;;;;;80.20;34.50;;;;;;;-4.02;90.23;99630.34;108788;282;38775;-71
2023/12/02 02:39:56;;;;;;;79.60;35.10;;;;;;;-4.05;89.92;99629.64;108690;282;38511;-69
2023/12/02 02:42:33;;;;;;;74.00;35.40;;;;;;;-4.05;90.15;99638.65;108690;282;155311;-69
2023/12/02 02:45:12;;;;;;;74.30;32.90;;;;;;;-4.01;90.45;99645.68;108697;282;37935;-71
2023/12/02 02:47:46;;;;;;;79.60;35.40;;;;;;;-4.04;89.82;99655.20;107960;282;807355;-72
2023/12/02 02:50:21;;;;;;;84.30;37.50;;;;;;;-4.06;89.93;99662.15;108603;282;39872;-70
2023/12/02 02:52:57;;;;;;;83.60;35.80;;;;;;;-4.07;89.99;99662.83;108576;283;154415;-70
2023/12/02 02:55:31;;;;;;;82.70;36.30;;;;;;;-4.07;89.91;99666.75;108674;282;39529;-72
2023/12/02 02:58:09;;;;;;;73.20;34.00;;;;;;;-4.08;89.82;99666.73;108705;283;38570;-71
2023/12/02 03:00:47;;;;;;;77.70;35.30;;;;;;;-4.09;89.75;99663.66;108513;283;155292;-71
2023/12/02 03:03:26;;;;;;;81.70;37.20;;;;;;;-4.09;89.87;99660.77;108710;283;38782;-71
2023/12/02 03:06:02;;;;;;;78.90;35.40;;;;;;;-4.09;89.87;99657.20;108578;283;155099;-70
2023/12/02 03:08:46;;;;;;;79.80;35.40;;;;;;;-4.11;89.86;99650.52;108713;283;38209;-71
2023/12/02 03:11:27;;;;;;;84.60;34.80;;;;;;;-4.15;89.91;99657.48;108567;283;154050;-71
2023/12/02 03:14:09;;;;;;;81.10;35.40;;;;;;;-4.15;89.83;99657.14;108696;283;39080;-72
2023/12/02 03:16:44;;;;;;;74.10;33.50;;;;;;;-4.16;89.88;99648.44;108564;283;155997;-71
2023/12/02 03:19:21;;;;;;;76.40;32.10;;;;;;;-4.12;89.95;99643.38;108656;283;38488;-71
2023/12/02 03:21:56;;;;;;;79.30;35.60;;;;;;;-4.09;90.05;99641.17;108694;279;38204;-71
2023/12/02 03:24:32;;;;;;;80.30;36.40;;;;;;;-4.08;89.92;99636.08;108574;282;155107;-72
2023/12/02 03:27:11;;;;;;;85.00;37.90;;;;;;;-4.09;89.91;99628.06;108729;283;38760;-70
2023/12/02 03:29:49;;;;;;;84.70;34.70;;;;;;;-4.11;89.80;99625.84;108562;283;153971;-72
2023/12/02 03:32:26;;;;;;;82.40;35.50;;;;;;;-4.12;89.73;99615.94;108684;283;38455;-71
2023/12/02 03:35:06;;;;;;;78.50;34.90;;;;;;;-4.12;89.64;99609.82;108638;282;154988;-71
2023/12/02 03:37:42;;;;;;;79.50;36.20;;;;;;;-4.10;89.94;99600.98;108775;282;38581;-69
2023/12/02 03:40:19;;;;;;;84.80;38.50;;;;;;;-4.09;89.78;99595.69;108748;282;38371;-72
2023/12/02 03:42:53;;;;;;;88.20;40.50;;;;;;;-4.08;89.89;99596.23;108568;282;155575;-71
2023/12/02 03:45:27;;;;;;;93.90;39.70;;;;;;;-4.06;90.07;99594.02;108697;282;39151;-73
2023/12/02 03:48:01;;;;;;;97.00;39.00;;;;;;;-4.04;90.16;99587.39;108431;282;176346;-72
2023/12/02 03:50:35;;;;;;;93.50;39.50;;;;;;;-4.03;90.10;99584.50;108718;282;38833;-72
2023/12/02 03:53:12;;;;;;;91.40;40.80;;;;;;;-4.03;90.02;99592.69;108581;282;156088;-71
2023/12/02 03:55:46;;;;;;;91.20;38.90;;;;;;;-4.01;90.15;99596.62;108708;282;38411;-71
2023/12/02 03:58:21;;;;;;;97.50;41.00;;;;;;;-3.96;90.37;99601.77;108712;282;38170;-70
2023/12/02 04:01:02;;;;;;;98.20;42.70;;;;;;;-3.93;90.25;99606.05;108560;282;154011;-69
2023/12/02 04:03:40;;;;;;;96.80;42.20;;;;;;;-3.93;90.38;99609.14;108719;282;38475;-70
2023/12/02 04:06:15;;;;;;;90.90;37.60;;;;;;;-3.90;90.55;99609.48;108572;282;153959;-73
2023/12/02 04:08:49;;;;;;;86.70;39.00;;;;;;;-3.86;90.60;99609.17;108728;282;38256;-71
2023/12/02 04:11:23;;;;;;;76.00;33.80;;;;;;;-3.80;90.74;99612.45;108564;282;154646;-71
2023/12/02 04:14:21;;;;;;;74.90;31.50;;;;;;;-3.75;90.73;99612.84;108721;282;38646;-72
2023/12/02 04:16:58;;;;;;;81.10;35.10;;;;;;;-3.69;90.49;99610.52;108576;282;155130;-72
2023/12/02 04:19:33;;;;;;;80.30;33.30;;;;;;;-3.75;89.95;99608.75;108716;282;39274;-70
2023/12/02 04:22:09;;;;;;;79.70;36.00;;;;;;;-3.77;90.19;99610.45;108669;282;38288;-70
2023/12/02 04:24:48;;;;;;;81.00;34.90;;;;;;;-3.74;90.44;99610.64;108620;282;154252;-70
2023/12/02 04:27:25;;;;;;;79.70;34.70;;;;;;;-3.72;90.38;99608.95;108579;282;176310;-70
2023/12/02 04:30:00;;;;;;;69.80;32.50;;;;;;;-3.69;90.32;99613.56;108618;282;155917;-73
2023/12/02 04:32:34;;;;;;;77.70;33.70;;;;;;;-3.65;90.42;99616.65;108701;282;38539;-72
2023/12/02 04:35:10;;;;;;;88.50;38.10;;;;;;;-3.63;90.19;99623.66;108487;282;176294;-72
2023/12/02 04:37:47;;;;;;;81.60;35.50;;;;;;;-3.64;90.00;99628.09;108750;282;37867;-71
2023/12/02 04:40:22;;;;;;;82.40;36.10;;;;;;;-3.68;89.79;99623.98;108749;275;38451;-73
2023/12/02 04:42:56;;;;;;;85.10;36.70;;;;;;;-3.70;89.84;99628.73;108617;282;153990;-71
2023/12/02 04:45:38;;;;;;;84.30;34.30;;;;;;;-3.73;89.80;99632.45;108736;282;38157;-69
2023/12/02 04:48:14;;;;;;;;;;;;;;;-3.73;89.78;99634.50;108587;282;155965;-70
2023/12/02 04:50:49;;;;;;;83.80;36.30;;;;;;;-3.77;89.86;99630.55;108745;282;39656;-69
2023/12/02 04:53:26;;;;;;;87.30;38.20;;;;;;;-3.77;89.80;99623.23;108562;282;154922;-69
2023/12/02 04:56:02;;;;;;;94.10;38.80;;;;;;;-3.76;89.88;99616.41;108725;282;38703;-70
2023/12/02 04:58:42;;;;;;;93.10;37.50;;;;;;;-3.77;89.99;99617.60;108588;282;154135;-71
2023/12/02 05:01:18;;;;;;;84.10;34.60;;;;;;;-3.78;89.84;99611.95;108761;282;38660;-74
2023/12/02 05:03:52;;;;;;;84.90;35.20;;;;;;;-3.81;89.90;99603.94;108668;282;39811;-71
2023/12/02 05:06:27;;;;;;;78.80;33.70;;;;;;;-3.80;90.06;99601.21;108624;282;154599;-71
2023/12/02 05:09:03;;;;;;;75.10;31.20;;;;;;;-3.73;90.38;99600.77;108720;282;38534;-72
2023/12/02 05:11:39;;;;;;;73.60;30.70;;;;;;;-3.70;90.40;99603.49;108590;282;154916;-71
2023/12/02 05:14:18;;;;;;;65.20;27.40;;;;;;;-3.67;90.52;99600.80;108631;282;189934;-72
2023/12/02 05:16:52;;;;;;;68.50;28.90;;;;;;;-3.69;90.43;99595.67;108558;282;155422;-70
2023/12/02 05:19:26;;;;;;;64.90;27.00;;;;;;;-3.68;90.70;99591.94;108750;282;38191;-72
2023/12/02 05:22:01;;;;;;;67.20;26.80;;;;;;;-3.68;90.52;99594.50;108677;282;38308;-73
2023/12/02 05:24:35;;;;;;;69.60;29.90;;;;;;;-3.64;90.73;99604.75;108665;282;154643;-70
2023/12/02 05:27:13;;;;;;;60.40;27.90;;;;;;;-3.58;90.69;99598.98;108579;282;39308;-70
2023/12/02 05:29:50;;;;;;;59.30;25.50;;;;;;;-3.53;90.81;99604.48;108596;282;154447;-68
2023/12/02 05:32:24;;;;;;;59.60;27.30;;;;;;;-3.48;90.81;99600.92;108766;282;38489;-71
2023/12/02 05:35:00;;;;;;;62.30;27.30;;;;;;;-3.46;90.77;99595.83;108701;279;154267;-71
2023/12/02 05:37:35;;;;;;;61.90;26.50;;;;;;;-3.44;90.67;99596.36;108866;279;39331;-72
2023/12/02 05:40:13;;;;;;;57.00;25.40;;;;;;;-3.44;90.49;99591.05;108879;280;38317;-71
2023/12/02 05:42:48;;;;;;;60.90;27.40;;;;;;;-3.44;90.37;99592.59;108770;279;156866;-72
2023/12/02 05:45:22;;;;;;;62.80;27.30;;;;;;;-3.41;90.35;99590.73;108900;280;38540;-71
2023/12/02 05:48:01;;;;;;;62.60;26.20;;;;;;;-3.40;90.13;99589.21;108732;279;154078;-69
2023/12/02 05:50:36;;;;;;;61.60;27.70;;;;;;;-3.47;89.77;99591.22;108851;280;38641;-68
2023/12/02 05:53:11;;;;;;;66.10;28.80;;;;;;;-3.48;90.05;99593.08;108701;279;154267;-68
2023/12/02 05:55:45;;;;;;;64.10;27.40;;;;;;;-3.47;90.29;99590.86;108851;280;38802;-71
2023/12/02 05:58:19;;;;;;;61.90;27.80;;;;;;;-3.45;90.18;99584.05;108792;280;38303;-74
2023/12/02 06:00:54;;;;;;;64.30;28.20;;;;;;;-3.43;90.27;99588.52;108715;279;155353;-71
2023/12/02 06:03:30;;;;;;;67.30;30.80;;;;;;;-3.39;90.27;99594.85;108886;280;38358;-72
2023/12/02 06:06:12;;;;;;;66.80;29.50;;;;;;;-3.39;89.93;99597.23;108656;280;176297;-69
2023/12/02 06:08:49;;;;;;;73.00;31.80;;;;;;;-3.40;90.12;99593.30;108866;280;39033;-71
2023/12/02 06:11:26;;;;;;;66.00;29.90;;;;;;;-3.41;90.21;99593.64;108707;280;153995;-72
2023/12/02 06:14:05;;;;;;;68.80;27.40;;;;;;;-3.39;90.30;99600.47;108771;280;38754;-73
2023/12/02 06:16:40;;;;;;;73.30;29.70;;;;;;;-3.41;89.91;99607.79;108684;279;155280;-71
2023/12/02 06:19:19;;;;;;;69.90;29.20;;;;;;;-3.43;89.75;99605.55;108924;279;38427;-70
2023/12/02 06:21:56;;;;;;;65.60;29.30;;;;;;;-3.42;89.90;99598.40;108881;280;38344;-72
2023/12/02 06:24:33;;;;;;;62.70;27.30;;;;;;;-3.40;89.96;99597.74;108809;279;153961;-71
2023/12/02 06:27:21;;;;;;;65.50;28.70;;;;;;;-3.41;89.83;99597.38;108854;280;38170;-73
2023/12/02 06:29:57;;;;;;;58.00;26.20;;;;;;;-3.42;89.96;99600.96;108745;279;154366;-72
2023/12/02 06:32:34;;;;;;;70.70;27.30;;;;;;;-3.40;90.10;99600.28;108927;279;38295;-73
2023/12/02 06:35:12;;;;;;;65.00;27.80;;;;;;;-3.38;90.34;99588.20;108680;278;155781;-70
2023/12/02 06:37:47;;;;;;;65.00;27.30;;;;;;;-3.30;90.46;99586.88;108889;278;38251;-72
2023/12/02 06:40:22;;;;;;;60.40;27.20;;;;;;;-3.28;90.09;99586.71;108882;279;38484;-71
2023/12/02 06:42:56;;;;;;;69.20;29.50;;;;;;;-3.23;90.49;99583.51;108677;279;154134;-69
2023/12/02 06:45:31;;;;;;;63.50;27.70;;;;;;;-3.19;90.28;99591.03;108847;280;38304;-72
2023/12/02 06:48:05;;;;;;;64.00;29.20;;;;;;;-3.18;90.17;99605.02;108700;280;154998;-71
2023/12/02 06:50:39;;;;;;;70.50;30.00;;;;;;;-3.21;90.06;99613.69;108818;280;38499;-71
2023/12/02 06:53:16;;;;;;;62.50;26.90;;;;;;;-3.22;89.83;99612.67;108715;279;154821;-73
2023/12/02 06:55:51;;;;;;;66.20;27.40;;;;;;;-3.23;89.90;99615.40;108850;279;39392;-72
2023/12/02 06:58:29;;;;;;;68.50;29.70;;;;;;;-3.18;90.18;99620.20;108792;280;38213;-73
2023/12/02 07:01:06;;;;;;;70.80;31.10;;;;;;;-3.15;90.03;99615.95;108902;280;40005;-69
2023/12/02 07:03:41;;;;;;;68.60;31.10;;;;;;;-3.19;89.68;99618.48;108868;280;38288;-72
2023/12/02 07:06:16;;;;;;;67.60;28.90;;;;;;;-3.24;89.73;99627.33;108741;279;155354;-73
2023/12/02 07:08:52;;;;;;;65.30;28.60;;;;;;;-3.22;89.93;99627.84;108857;280;38451;-72
2023/12/02 07:11:27;;;;;;;65.10;27.90;;;;;;;-3.17;90.08;99629.75;108765;280;154662;-71
2023/12/02 07:14:06;;;;;;;64.30;27.90;;;;;;;-3.09;90.27;99629.79;108832;280;37946;-73
2023/12/02 07:16:41;;;;;;;65.80;28.30;;;;;;;-3.00;90.29;99633.60;108676;280;154154;-71
2023/12/02 07:19:19;;;;;;;62.60;28.60;;;;;;;-2.97;90.16;99632.23;108781;279;176391;-71
2023/12/02 07:21:57;;;;;;;67.30;28.10;;;;;;;-2.94;90.26;99643.02;108838;280;38643;-71
2023/12/02 07:24:32;;;;;;;64.10;28.00;;;;;;;-2.92;90.24;99643.87;108710;280;154287;-73
2023/12/02 07:27:07;;;;;;;68.40;30.00;;;;;;;-2.89;90.13;99637.76;108797;280;39592;-72
2023/12/02 07:29:41;;;;;;;63.90;29.00;;;;;;;-2.89;89.73;99638.41;108635;279;176225;-70
2023/12/02 07:32:17;;;;;;;64.60;29.70;;;;;;;-2.89;89.80;99630.06;108837;279;38979;-69
2023/12/02 07:34:52;;;;;;;69.70;30.20;;;;;;;-2.86;89.52;99631.61;108730;279;155011;-71
2023/12/02 07:37:29;;;;;;;68.80;30.80;;;;;;;-2.89;89.45;99638.43;108887;279;38494;-73
2023/12/02 07:40:06;;;;;;;77.90;32.80;;;;;;;-2.90;89.71;99638.44;108879;280;38352;-72
2023/12/02 07:42:40;;;;;;;70.00;31.10;;;;;;;-2.87;89.75;99637.58;108696;280;154054;-71
2023/12/02 07:45:20;;;;;;;66.70;29.80;;;;;;;-2.86;89.74;99634.00;108821;280;38770;-71
2023/12/02 07:47:53;;;;;;;64.00;30.00;;;;;;;-2.85;89.42;99632.47;108695;279;155019;-72
2023/12/02 07:50:27;;;;;;;73.80;33.30;;;;;;;-2.85;89.53;99626.67;108830;279;39309;-70
2023/12/02 07:53:01;;;;;;;77.00;32.00;;;;;;;-2.84;89.42;99621.55;108722;279;154339;-72
2023/12/02 07:55:37;;;;;;;77.80;33.30;;;;;;;-2.83;89.61;99617.29;108951;279;39088;-70
2023/12/02 07:58:11;;;;;;;75.10;32.30;;;;;;;-2.83;89.40;99615.73;108864;280;38317;-71
2023/12/02 08:00:46;;;;;;;73.00;31.90;;;;;;;-2.86;89.41;99609.61;108725;280;153911;-70
2023/12/02 08:03:26;;;;;;;73.70;30.10;;;;;;;-2.87;89.45;99610.11;108821;280;39720;-70
2023/12/02 08:06:03;;;;;;;74.60;32.50;;;;;;;-2.85;89.49;99615.56;108740;279;155891;-70
2023/12/02 08:08:41;;;;;;;78.60;33.60;;;;;;;-2.82;89.49;99615.06;108862;279;38466;-70
2023/12/02 08:11:18;;;;;;;74.90;34.60;;;;;;;-2.79;89.75;99612.70;108750;279;155229;-72
2023/12/02 08:13:55;;;;;;;85.60;37.70;;;;;;;-2.76;89.81;99601.79;108956;279;38103;-72
2023/12/02 08:16:44;;;;;;;80.60;34.80;;;;;;;-2.72;89.86;99607.25;108839;280;38206;-70
2023/12/02 08:19:20;;;;;;;85.00;35.00;;;;;;;-2.70;89.71;99613.23;108865;280;38421;-70
2023/12/02 08:21:56;;;;;;;81.30;35.50;;;;;;;-2.67;89.98;99620.42;108847;280;39043;-72
2023/12/02 08:24:32;;;;;;;73.70;32.30;;;;;;;-2.61;89.80;99620.63;108729;279;155766;-70
2023/12/02 08:27:12;;;;;;;75.50;33.50;;;;;;;-2.57;89.75;99617.54;108855;279;37932;-70
2023/12/02 08:29:48;;;;;;;87.60;38.80;;;;;;;-2.54;89.82;99622.34;108727;280;155141;-71
2023/12/02 08:32:22;;;;;;;97.50;43.60;;;;;;;-2.53;89.68;99629.52;108804;280;38611;-72
2023/12/02 08:34:59;;;;;;;84.50;36.50;;;;;;;-2.51;89.87;99640.63;108706;279;154154;-72
2023/12/02 08:37:35;;;;;;;78.60;34.60;;;;;;;-2.47;89.92;99645.23;108912;279;38177;-70
2023/12/02 08:40:13;;;;;;;75.20;34.30;;;;;;;-2.43;89.61;99647.46;108855;280;38446;-70
2023/12/02 08:42:53;;;;;;;81.40;37.00;;;;;;;-2.40;89.63;99642.70;108748;279;153859;-69
2023/12/02 08:45:30;;;;;;;82.60;36.70;;;;;;;-2.39;89.31;99649.19;108919;279;38252;-72
2023/12/02 08:48:06;;;;;;;87.00;36.90;;;;;;;-2.41;89.29;99654.82;108706;280;154097;-72
2023/12/02 08:50:40;;;;;;;88.50;38.40;;;;;;;-2.46;89.13;99665.39;108844;280;38195;-70
2023/12/02 08:53:16;;;;;;;82.10;36.60;;;;;;;-2.48;89.34;99671.88;108710;279;154929;-69
2023/12/02 08:55:51;;;;;;;89.30;38.40;;;;;;;-2.43;89.79;99680.26;108929;279;38772;-70
2023/12/02 08:58:30;;;;;;;91.90;37.90;;;;;;;-2.38;89.81;99686.26;108835;280;39812;-70
2023/12/02 09:01:04;;;;;;;84.60;38.00;;;;;;;-2.30;89.84;99685.27;108782;279;154285;-72
2023/12/02 09:03:38;;;;;;;91.40;39.40;;;;;;;-2.22;89.86;99685.45;108870;280;39778;-71
2023/12/02 09:06:13;;;;;;;89.70;38.60;;;;;;;-2.19;89.69;99686.48;108700;280;154782;-71
2023/12/02 09:08:50;;;;;;;87.20;39.70;;;;;;;-2.19;89.44;99686.82;108835;280;38347;-71
2023/12/02 09:11:25;;;;;;;93.30;41.10;;;;;;;-2.18;89.61;99681.17;108777;279;153888;-71
2023/12/02 09:14:02;;;;;;;83.50;37.20;;;;;;;-2.13;89.64;99683.76;108913;279;39869;-68
2023/12/02 09:16:46;;;;;;;88.00;38.80;;;;;;;-2.11;89.43;99678.82;108870;280;38794;-71
2023/12/02 09:20:02;;;;;;;86.10;37.70;;;;;;;-2.08;89.28;99674.70;108826;280;38524;-70
2023/12/02 09:22:51;;;;;;;83.70;38.50;;;;;;;-2.08;89.26;99670.95;108873;280;37987;-71
2023/12/02 09:25:43;;;;;;;89.10;38.10;;;;;;;-2.11;89.09;99663.60;108788;280;38492;-71
2023/12/02 09:28:26;;;;;;;86.10;39.10;;;;;;;-2.13;89.17;99662.58;108795;280;38325;-73
2023/12/02 09:31:08;;;;;;;88.70;36.90;;;;;;;-2.13;89.24;99659.84;108715;279;154282;-70
2023/12/02 09:33:48;;;;;;;85.00;36.30;;;;;;;-2.11;89.28;99658.14;108879;280;38297;-69
2023/12/02 09:36:36;;;;;;;83.20;37.50;;;;;;;-2.06;89.34;99654.71;108743;280;156460;-69
2023/12/02 09:39:53;;;;;;;84.90;41.00;;;;;;;-1.97;89.79;99648.08;108819;280;38166;-74
2023/12/02 09:42:29;;;;;;;93.10;41.70;;;;;;;-1.83;89.99;99645.52;108761;279;153943;-74
2023/12/02 09:45:04;;;;;;;87.00;41.40;;;;;;;-1.76;89.81;99644.50;108862;279;39528;-70
2023/12/02 09:47:40;;;;;;;89.90;39.10;;;;;;;-1.75;89.23;99644.33;108694;280;155654;-73
2023/12/02 09:50:18;;;;;;;85.30;34.80;;;;;;;-1.73;89.30;99639.86;108834;280;39666;-70
2023/12/02 09:53:04;;;;;;;85.80;35.20;;;;;;;-1.71;89.06;99637.48;108811;280;38880;-72
2023/12/02 09:55:43;;;;;;;82.90;38.40;;;;;;;-1.71;88.85;99643.13;108871;280;38325;-68
2023/12/02 09:58:30;;;;;;;81.60;36.30;;;;;;;-1.69;88.93;99639.36;108771;280;175751;-69
2023/12/02 10:01:09;;;;;;;82.70;37.20;;;;;;;-1.67;88.89;99630.30;108787;279;154476;-70
2023/12/02 10:04:01;;;;;;;80.40;36.00;;;;;;;-1.64;89.03;99635.42;108863;280;38293;-71
2023/12/02 10:06:52;;;;;;;73.10;35.10;;;;;;;-1.62;89.06;99648.27;108691;279;154549;-71
2023/12/02 10:09:44;;;;;;;79.40;34.50;;;;;;;-1.64;88.59;99658.52;108775;280;38182;-74
2023/12/02 10:12:30;;;;;;;71.10;32.80;;;;;;;-1.63;88.74;99656.29;108719;279;154711;-73
2023/12/02 10:15:07;;;;;;;68.20;33.20;;;;;;;-1.56;88.94;99649.45;108909;279;39483;-70
2023/12/02 10:17:53;;;;;;;74.90;34.10;;;;;;;-1.48;89.17;99650.12;108763;279;155369;-71
2023/12/02 10:20:29;;;;;;;72.20;34.00;;;;;;;-1.43;88.84;99652.85;108847;280;38907;-71
2023/12/02 10:23:09;;;;;;;73.80;33.90;;;;;;;-1.42;88.82;99644.14;108721;280;155219;-74
2023/12/02 10:25:51;;;;;;;73.80;31.30;;;;;;;-1.42;88.56;99627.55;108834;280;38421;-72
2023/12/02 10:28:32;;;;;;;73.90;32.80;;;;;;;-1.41;88.58;99623.95;108811;280;39689;-71
2023/12/02 10:31:08;;;;;;;64.60;31.10;;;;;;;-1.38;88.29;99631.81;108778;279;154326;-70
2023/12/02 10:33:55;;;;;;;69.40;31.80;;;;;;;-1.34;88.42;99617.59;108843;279;38315;-71
2023/12/02 10:36:33;;;;;;;68.20;32.70;;;;;;;-1.33;88.16;99606.14;108671;280;153985;-71
2023/12/02 10:39:13;;;;;;;71.90;33.70;;;;;;;-1.35;88.15;99595.36;108820;280;38824;-70
2023/12/02 10:42:04;;;;;;;76.00;33.40;;;;;;;-1.42;87.91;99596.73;108691;279;155282;-71
2023/12/02 10:44:43;;;;;;;72.40;32.40;;;;;;;-1.39;88.46;99607.69;108881;279;39665;-72
2023/12/02 10:47:20;;;;;;;68.00;32.60;;;;;;;-1.36;88.25;99608.04;108650;279;155657;-71
2023/12/02 10:49:56;;;;;;;63.90;31.70;;;;;;;-1.35;88.19;99613.83;108301;279;729918;-71
2023/12/02 10:52:32;;;;;;;64.80;32.70;;;;;;;-1.36;88.03;99614.70;108868;276;38272;-70
2023/12/02 10:55:09;;;;;;;65.10;32.00;;;;;;;-1.37;87.99;99612.13;108701;279;153767;-73
2023/12/02 10:57:46;;;;;;;69.10;33.80;;;;;;;-1.41;87.83;99611.28;108843;280;38267;-71
2023/12/02 11:00:25;;;;;;;65.60;31.30;;;;;;;-1.46;88.00;99609.58;108723;279;154328;-70
2023/12/02 11:03:03;;;;;;;68.00;31.90;;;;;;;-1.45;88.04;99597.95;108841;279;38241;-71
2023/12/02 11:05:45;;;;;;;61.70;29.80;;;;;;;-1.45;88.09;99593.85;108727;280;154760;-72
2023/12/02 11:08:23;;;;;;;65.00;30.80;;;;;;;-1.44;87.79;99610.44;108793;280;38820;-71
2023/12/02 11:11:00;;;;;;;67.70;31.50;;;;;;;-1.42;88.07;99633.88;108835;280;38772;-72
2023/12/02 11:13:42;;;;;;;73.60;32.80;;;;;;;-1.36;88.17;99651.48;108814;280;38288;-71
2023/12/02 11:16:22;;;;;;;;;;;;;;;-1.35;88.11;99657.80;108827;280;38723;-73
2023/12/02 11:19:20;;;;;;;66.20;31.20;;;;;;;-1.41;88.11;99663.46;108741;279;140468;-72
2023/12/02 11:22:14;;;;;;;65.10;29.50;;;;;;;-1.45;88.10;99658.51;109008;279;38194;-71
2023/12/02 11:25:00;;;;;;;58.10;27.00;;;;;;;-1.45;88.20;99647.72;108750;279;155006;-71
2023/12/02 11:27:45;;;;;;;64.20;30.40;;;;;;;-1.43;88.13;99638.14;108818;280;39171;-71
2023/12/02 11:30:29;;;;;;;57.30;25.90;;;;;;;-1.38;88.06;99641.39;108719;279;154010;-71
2023/12/02 11:33:10;;;;;;;64.30;30.20;;;;;;;-1.36;88.17;99645.83;108885;279;38403;-73
2023/12/02 11:35:48;;;;;;;66.70;29.20;;;;;;;-1.35;88.21;99630.77;108724;280;155343;-72
2023/12/02 11:38:28;;;;;;;68.10;30.50;;;;;;;-1.35;88.21;99611.60;108797;280;39394;-71
2023/12/02 11:41:19;;;;;;;58.60;26.10;;;;;;;-1.32;88.15;99596.39;108814;280;39705;-71
2023/12/02 11:44:05;;;;;;;49.10;26.10;;;;;;;-1.34;87.74;99603.75;108810;281;38165;-71
2023/12/02 11:46:48;;;;;;;58.90;28.00;;;;;;;-1.38;87.72;99610.25;108805;281;38456;-71
2023/12/02 11:49:29;;;;;;;62.90;29.20;;;;;;;-1.34;88.19;99610.23;108787;279;154391;-71
2023/12/02 11:52:12;;;;;;;55.90;27.60;;;;;;;-1.35;87.84;99601.35;108835;279;38311;-71
2023/12/02 11:54:57;;;;;;;50.50;24.30;;;;;;;-1.39;87.91;99595.03;108735;279;153917;-73
2023/12/02 11:57:43;;;;;;;53.90;23.90;;;;;;;-1.39;87.91;99592.11;108855;279;38311;-71
2023/12/02 12:00:22;;;;;;;46.40;24.20;;;;;;;-1.37;87.89;99595.70;108770;279;155600;-71
2023/12/02 12:03:33;;;;;;;46.20;22.80;;;;;;;-1.36;87.75;99597.42;108822;280;39624;-74